Time;durP1;ratioP1;P1;durP2;ratioP2;P2;SDS_P1;SDS_P2;PMS_P1;PMS_P2;Temp;Humidity;BMP_temperature;BMP_pressure;BME280_temperature;BME280_humidity;BME280_pressure;Samples;Min_cycle;Max_cycle;Signal;HPM_P1;HPM_P2
2024/02/06 00:00:08;;;;;;;99.40;57.92;;;6.00;91.00;;;;;;5053462;28;20407;-71
2024/02/06 00:02:35;;;;;;;94.80;56.33;;;5.60;92.10;;;;;;5066944;28;20526;-69
2024/02/06 00:05:03;;;;;;;92.25;55.95;;;5.60;92.20;;;;;;5068031;28;20036;-73
2024/02/06 00:07:30;;;;;;;118.93;65.97;;;5.70;92.10;;;;;;5067496;28;20033;-71
2024/02/06 00:10:02;;;;;;;119.38;65.20;;;5.70;91.40;;;;;;5067619;28;20395;-75
2024/02/06 00:12:30;;;;;;;125.88;73.75;;;5.60;91.50;;;;;;5071646;28;20031;-71
2024/02/06 00:14:57;;;;;;;139.07;78.05;;;5.60;91.50;;;;;;5065250;28;20485;-71
2024/02/06 00:17:24;;;;;;;138.80;77.20;;;5.50;91.40;;;;;;5083113;28;20110;-73
2024/02/06 00:19:51;;;;;;;123.03;73.43;;;5.60;91.40;;;;;;5056939;28;20033;-72
2024/02/06 00:22:19;;;;;;;128.60;76.32;;;5.70;91.20;;;;;;5058652;28;20075;-70
2024/02/06 00:24:49;;;;;;;123.43;73.75;;;5.50;91.50;;;;;;5056336;28;20083;-73
2024/02/06 00:27:16;;;;;;;116.28;70.03;;;5.50;91.60;;;;;;5046406;28;20047;-68
2024/02/06 00:29:43;;;;;;;119.07;68.32;;;5.30;92.10;;;;;;5054452;28;20491;-73
2024/02/06 00:32:11;;;;;;;113.60;69.57;;;5.50;92.30;;;;;;5066953;28;20039;-71
2024/02/06 00:34:38;;;;;;;119.05;66.97;;;5.70;91.60;;;;;;5064679;28;20037;-70
2024/02/06 00:37:06;;;;;;;113.30;67.25;;;5.40;91.30;;;;;;5069892;28;20047;-71
2024/02/06 00:39:33;;;;;;;111.43;68.07;;;5.30;91.60;;;;;;5048076;28;20037;-71
2024/02/06 00:42:04;;;;;;;123.32;68.68;;;5.30;91.90;;;;;;5066680;28;20121;-70
2024/02/06 00:44:31;;;;;;;104.03;61.05;;;5.40;92.00;;;;;;5061319;28;20102;-70
2024/02/06 00:46:58;;;;;;;96.70;59.38;;;5.40;92.70;;;;;;5074638;28;20048;-70
2024/02/06 00:49:25;;;;;;;90.47;56.03;;;5.60;92.30;;;;;;5054218;28;20043;-70
2024/02/06 00:51:53;;;;;;;98.90;58.08;;;5.60;92.50;;;;;;5071771;28;20040;-69
2024/02/06 00:54:20;;;;;;;94.28;54.55;;;5.50;92.20;;;;;;5072667;28;20361;-70
2024/02/06 00:56:47;;;;;;;87.10;50.17;;;5.50;92.30;;;;;;5071949;28;20063;-70
2024/02/06 00:59:15;;;;;;;86.97;48.75;;;5.40;92.30;;;;;;5065616;28;20029;-72
2024/02/06 01:01:42;;;;;;;86.75;52.50;;;5.30;92.50;;;;;;5052100;28;20510;-71
2024/02/06 01:04:10;;;;;;;80.43;51.63;;;5.50;91.90;;;;;;5052443;28;20110;-71
2024/02/06 01:06:37;;;;;;;79.22;49.45;;;5.60;91.70;;;;;;5052213;28;20060;-71
2024/02/06 01:09:04;;;;;;;68.93;44.20;;;5.80;91.30;;;;;;5052282;28;20047;-70
2024/02/06 01:11:32;;;;;;;69.60;45.33;;;5.70;91.00;;;;;;5080425;28;20040;-73
2024/02/06 01:13:59;;;;;;;79.93;45.72;;;5.50;91.30;;;;;;5071568;28;20048;-72
2024/02/06 01:16:26;;;;;;;79.63;48.15;;;5.60;91.20;;;;;;5071647;28;20028;-71
2024/02/06 01:18:54;;;;;;;72.93;45.10;;;5.30;91.40;;;;;;5053573;28;20040;-69
2024/02/06 01:21:21;;;;;;;104.25;60.63;;;5.10;92.00;;;;;;5069740;28;20078;-69
2024/02/06 01:23:48;;;;;;;108.63;63.95;;;5.20;92.00;;;;;;5070275;28;20629;-70
2024/02/06 01:26:16;;;;;;;112.75;67.07;;;5.00;92.10;;;;;;5051482;28;20059;-70
2024/02/06 01:28:43;;;;;;;115.82;66.65;;;5.10;92.20;;;;;;5069617;28;20040;-71
2024/02/06 01:31:13;;;;;;;111.10;68.97;;;5.20;92.10;;;;;;5069812;28;20115;-71
2024/02/06 01:33:40;;;;;;;120.72;69.22;;;5.20;91.90;;;;;;5060028;28;20040;-71
2024/02/06 01:36:08;;;;;;;116.28;67.68;;;5.00;92.00;;;;;;5069489;28;20243;-71
2024/02/06 01:38:35;;;;;;;101.97;60.58;;;5.10;92.20;;;;;;5069417;28;20044;-69
2024/02/06 01:41:03;;;;;;;78.95;49.53;;;5.20;92.40;;;;;;5069072;28;20047;-70
2024/02/06 01:43:30;;;;;;;84.75;51.47;;;5.20;92.10;;;;;;5069287;28;20036;-70
2024/02/06 01:45:58;;;;;;;90.95;54.10;;;5.30;92.10;;;;;;5056993;28;20652;-70
2024/02/06 01:48:26;;;;;;;91.50;54.40;;;5.30;92.00;;;;;;5069319;28;20052;-70
2024/02/06 01:51:13;;;;;;;103.10;60.80;;;5.30;92.00;;;;;;5071023;28;20040;-69
2024/02/06 01:53:41;;;;;;;117.40;66.95;;;5.20;92.00;;;;;;5070441;28;20047;-67
2024/02/06 01:56:09;;;;;;;115.43;68.40;;;5.10;91.40;;;;;;5070708;28;20058;-69
2024/02/06 01:58:36;;;;;;;126.95;72.60;;;4.90;91.80;;;;;;5070446;28;20124;-71
2024/02/06 02:01:05;;;;;;;131.40;77.88;;;4.60;91.80;;;;;;5071060;28;20098;-71
2024/02/06 02:03:33;;;;;;;140.68;84.65;;;4.30;92.40;;;;;;5070543;28;20043;-70
2024/02/06 02:06:00;;;;;;;152.43;86.57;;;3.90;92.90;;;;;;5070920;28;20029;-69
2024/02/06 02:08:31;;;;;;;145.52;88.85;;;3.80;93.40;;;;;;5067510;28;20041;-68
2024/02/06 02:10:59;;;;;;;140.65;83.43;;;3.90;93.80;;;;;;5054118;28;20044;-70
2024/02/06 02:13:26;;;;;;;145.70;85.53;;;4.10;93.50;;;;;;5068961;28;20037;-72
2024/02/06 02:15:54;;;;;;;130.20;80.32;;;4.20;92.90;;;;;;5062886;28;20439;-71
2024/02/06 02:18:21;;;;;;;132.07;76.05;;;3.70;93.00;;;;;;5070598;28;20040;-70
2024/02/06 02:20:49;;;;;;;119.00;71.60;;;3.70;94.10;;;;;;5069648;28;20063;-70
2024/02/06 02:23:33;;;;;;;120.95;68.53;;;3.70;93.90;;;;;;5063086;28;20029;-71
2024/02/06 02:26:00;;;;;;;117.57;70.28;;;3.90;93.90;;;;;;5052701;28;20060;-71
2024/02/06 02:28:28;;;;;;;131.65;72.93;;;4.00;93.60;;;;;;5062256;28;20063;-70
2024/02/06 02:30:57;;;;;;;114.20;69.18;;;4.00;93.30;;;;;;5051128;28;20551;-70
2024/02/06 02:33:24;;;;;;;124.40;70.60;;;4.00;93.10;;;;;;5070159;28;20037;-70
2024/02/06 02:35:52;;;;;;;121.38;69.57;;;4.10;93.00;;;;;;5057236;28;20043;-73
2024/02/06 02:38:20;;;;;;;115.22;67.18;;;4.10;92.90;;;;;;5050981;28;20063;-70
2024/02/06 02:40:47;;;;;;;109.25;63.60;;;3.80;92.90;;;;;;5051044;28;20037;-69
2024/02/06 02:43:15;;;;;;;112.60;63.85;;;3.80;93.70;;;;;;5033851;28;20080;-71
2024/02/06 02:45:43;;;;;;;109.05;65.47;;;3.90;93.50;;;;;;5058094;28;20036;-72
2024/02/06 02:48:10;;;;;;;104.55;61.55;;;3.70;93.10;;;;;;5060017;28;20040;-71
2024/02/06 02:50:37;;;;;;;101.57;58.70;;;3.60;94.10;;;;;;5052221;28;20045;-69
2024/02/06 02:53:05;;;;;;;92.82;55.25;;;3.80;94.00;;;;;;5050965;28;20043;-72
2024/02/06 02:55:33;;;;;;;88.65;51.13;;;4.00;93.70;;;;;;5052823;28;20120;-70
2024/02/06 02:58:00;;;;;;;105.95;58.42;;;4.00;93.50;;;;;;5070610;28;20044;-72
2024/02/06 03:00:29;;;;;;;92.95;56.03;;;3.80;93.30;;;;;;5053550;28;20025;-72
2024/02/06 03:02:57;;;;;;;79.97;49.92;;;3.80;93.70;;;;;;5061114;28;20127;-73
2024/02/06 03:05:24;;;;;;;75.18;45.33;;;3.90;93.80;;;;;;5056979;28;20028;-71
2024/02/06 03:07:52;;;;;;;66.75;41.97;;;4.10;93.50;;;;;;5058248;28;20456;-69
2024/02/06 03:10:19;;;;;;;73.88;43.85;;;3.80;93.00;;;;;;5033005;28;20132;-70
2024/02/06 03:12:46;;;;;;;85.20;51.58;;;3.60;93.30;;;;;;5065100;28;20041;-68
2024/02/06 03:15:14;;;;;;;78.15;47.05;;;3.50;93.60;;;;;;5072034;28;20102;-70
2024/02/06 03:17:41;;;;;;;93.38;54.50;;;3.40;93.80;;;;;;5072110;28;20035;-71
2024/02/06 03:20:09;;;;;;;81.38;52.60;;;3.30;93.80;;;;;;5071864;28;20028;-72
2024/02/06 03:22:36;;;;;;;95.68;56.65;;;3.20;94.40;;;;;;5071154;28;20526;-70
2024/02/06 03:25:04;;;;;;;96.47;57.03;;;3.00;95.10;;;;;;5050834;28;20088;-70
2024/02/06 03:27:31;;;;;;;94.82;57.50;;;2.90;95.70;;;;;;5065903;28;20174;-70
2024/02/06 03:30:02;;;;;;;111.30;58.80;;;3.00;95.60;;;;;;5073144;28;20361;-69
2024/02/06 03:32:29;;;;;;;101.15;57.35;;;3.20;95.60;;;;;;5072857;28;20041;-70
2024/02/06 03:34:56;;;;;;;83.55;51.38;;;3.20;95.40;;;;;;5073530;28;20036;-69
2024/02/06 03:37:24;;;;;;;72.20;48.00;;;3.30;95.00;;;;;;5073242;28;20123;-70
2024/02/06 03:39:51;;;;;;;72.10;40.72;;;3.40;94.20;;;;;;5073701;28;20116;-71
2024/02/06 03:42:19;;;;;;;59.17;37.08;;;3.40;94.30;;;;;;5073335;28;20037;-70
2024/02/06 03:44:46;;;;;;;71.43;40.97;;;3.40;94.30;;;;;;5073368;28;20486;-70
2024/02/06 03:47:13;;;;;;;61.88;37.75;;;3.30;94.30;;;;;;5082643;28;20397;-69
2024/02/06 03:49:40;;;;;;;54.42;33.88;;;3.40;94.00;;;;;;5073744;28;20046;-71
2024/02/06 03:52:07;;;;;;;44.25;28.52;;;3.50;93.60;;;;;;5068240;28;20727;-70
2024/02/06 03:54:35;;;;;;;42.50;28.23;;;3.60;93.20;;;;;;5065413;28;20041;-70
2024/02/06 03:57:02;;;;;;;50.33;31.75;;;3.60;92.90;;;;;;5070926;28;20138;-71
2024/02/06 03:59:30;;;;;;;55.97;35.30;;;3.30;92.90;;;;;;5053602;28;20090;-72
2024/02/06 04:01:57;;;;;;;66.90;41.95;;;3.30;93.60;;;;;;5048905;28;20310;-70
2024/02/06 04:04:25;;;;;;;75.22;41.95;;;3.40;93.60;;;;;;5053852;28;20454;-70
2024/02/06 04:06:52;;;;;;;65.38;42.17;;;3.20;93.10;;;;;;5053384;28;20033;-70
2024/02/06 04:09:20;;;;;;;77.30;45.38;;;3.30;93.80;;;;;;5053489;28;20384;-69
2024/02/06 04:11:47;;;;;;;87.03;45.80;;;3.40;93.30;;;;;;5056934;28;20097;-71
2024/02/06 04:14:14;;;;;;;83.10;45.90;;;3.30;93.40;;;;;;5073188;28;20036;-71
2024/02/06 04:16:41;;;;;;;79.07;46.38;;;3.10;93.50;;;;;;5055023;28;20041;-71
2024/02/06 04:19:08;;;;;;;73.55;44.08;;;3.10;93.90;;;;;;5076155;28;20090;-71
2024/02/06 04:21:36;;;;;;;69.30;43.70;;;3.10;94.20;;;;;;5074593;28;20045;-71
2024/02/06 04:24:04;;;;;;;69.10;44.70;;;3.20;94.00;;;;;;5053864;28;20036;-71
2024/02/06 04:26:31;;;;;;;71.47;42.50;;;3.30;93.80;;;;;;5072184;28;20042;-69
2024/02/06 04:28:58;;;;;;;68.82;42.38;;;3.30;93.60;;;;;;5072928;28;20383;-70
2024/02/06 04:31:25;;;;;;;65.95;41.20;;;3.20;93.60;;;;;;5067613;28;20376;-71
2024/02/06 04:33:53;;;;;;;66.10;38.60;;;3.30;93.90;;;;;;5065517;28;20464;-71
2024/02/06 04:36:22;;;;;;;67.07;42.25;;;3.30;93.90;;;;;;5054885;28;20064;-71
2024/02/06 04:38:50;;;;;;;63.67;39.33;;;3.30;93.70;;;;;;5070902;28;20032;-72
2024/02/06 04:41:17;;;;;;;57.95;38.60;;;3.30;93.50;;;;;;5072496;28;20086;-71
2024/02/06 04:43:45;;;;;;;61.00;38.85;;;3.20;93.80;;;;;;5054567;28;20060;-70
2024/02/06 04:46:12;;;;;;;58.95;38.25;;;2.90;94.20;;;;;;5075342;28;20036;-71
2024/02/06 04:48:40;;;;;;;51.88;34.60;;;2.90;95.30;;;;;;5057175;28;20098;-71
2024/02/06 04:51:07;;;;;;;48.90;33.67;;;3.00;95.00;;;;;;5077554;28;20474;-71
2024/02/06 04:53:35;;;;;;;48.88;31.33;;;3.30;94.80;;;;;;5070832;28;20032;-72
2024/02/06 04:56:03;;;;;;;48.72;30.50;;;3.40;94.20;;;;;;5071546;28;20044;-71
2024/02/06 04:58:30;;;;;;;36.67;27.13;;;3.30;94.40;;;;;;5054214;28;20468;-70
2024/02/06 05:00:58;;;;;;;44.67;28.98;;;3.30;95.40;;;;;;5071915;28;20034;-70
2024/02/06 05:03:25;;;;;;;50.72;29.55;;;3.50;95.10;;;;;;5053457;28;20085;-69
2024/02/06 05:05:53;;;;;;;48.78;29.55;;;3.50;94.60;;;;;;5071982;28;20036;-70
2024/02/06 05:08:20;;;;;;;44.60;28.98;;;3.40;94.30;;;;;;5071670;28;20040;-70
2024/02/06 05:10:47;;;;;;;49.83;31.23;;;3.30;94.70;;;;;;5072038;28;20040;-70
2024/02/06 05:13:14;;;;;;;50.88;30.08;;;3.30;94.80;;;;;;5071779;28;20036;-69
2024/02/06 05:15:42;;;;;;;47.47;30.15;;;3.10;95.20;;;;;;5062638;28;20532;-71
2024/02/06 05:18:10;;;;;;;50.97;32.05;;;3.30;95.10;;;;;;5047402;28;20029;-72
2024/02/06 05:20:37;;;;;;;56.03;33.75;;;3.30;94.80;;;;;;5034572;28;20045;-71
2024/02/06 05:23:05;;;;;;;54.85;31.85;;;3.30;94.50;;;;;;5059783;28;20036;-70
2024/02/06 05:25:32;;;;;;;58.92;33.17;;;3.40;94.20;;;;;;5070129;28;20043;-71
2024/02/06 05:27:59;;;;;;;49.78;31.77;;;3.50;94.40;;;;;;5052449;28;20029;-72
2024/02/06 05:30:27;;;;;;;54.40;34.55;;;3.40;93.90;;;;;;5054471;28;20356;-71
2024/02/06 05:32:54;;;;;;;59.80;34.60;;;3.40;94.10;;;;;;5073090;28;20032;-71
2024/02/06 05:35:22;;;;;;;61.10;35.95;;;3.30;93.70;;;;;;5070230;28;20535;-71
2024/02/06 05:37:49;;;;;;;55.20;35.67;;;3.30;93.80;;;;;;5065555;28;20064;-71
2024/02/06 05:40:16;;;;;;;59.38;36.88;;;3.30;93.80;;;;;;5058105;28;20036;-71
2024/02/06 05:42:45;;;;;;;48.33;33.38;;;3.30;93.80;;;;;;5048326;28;20418;-71
2024/02/06 05:45:12;;;;;;;58.28;34.28;;;3.30;93.90;;;;;;5074055;28;20426;-70
2024/02/06 05:47:40;;;;;;;53.30;33.97;;;3.10;94.60;;;;;;5035271;28;20384;-70
2024/02/06 05:50:09;;;;;;;59.10;36.58;;;3.20;94.70;;;;;;5066726;28;20063;-70
2024/02/06 05:52:37;;;;;;;76.10;43.33;;;3.20;94.40;;;;;;5081767;28;20119;-67
2024/02/06 05:55:06;;;;;;;84.18;48.55;;;3.50;94.10;;;;;;5056002;28;20033;-67
2024/02/06 05:57:34;;;;;;;145.98;78.55;;;3.60;94.00;;;;;;5066494;28;20044;-69
2024/02/06 06:00:06;;;;;;;67.50;41.35;;;3.70;93.30;;;;;;5068996;28;20368;-69
2024/02/06 06:02:34;;;;;;;56.00;38.80;;;3.50;92.70;;;;;;5054698;28;20045;-69
2024/02/06 06:05:01;;;;;;;60.05;35.35;;;3.50;93.10;;;;;;5068950;28;20036;-70
2024/02/06 06:07:29;;;;;;;57.78;35.53;;;3.50;93.30;;;;;;5053453;28;20032;-69
2024/02/06 06:09:56;;;;;;;61.08;36.28;;;3.50;93.10;;;;;;5078914;28;20068;-70
2024/02/06 06:12:24;;;;;;;54.55;34.65;;;3.60;93.30;;;;;;5069486;28;20040;-69
2024/02/06 06:14:52;;;;;;;55.90;35.65;;;3.50;93.30;;;;;;5061361;28;20029;-72
2024/02/06 06:17:20;;;;;;;56.95;36.67;;;3.60;94.00;;;;;;5063690;28;20036;-69
2024/02/06 06:19:47;;;;;;;63.60;38.30;;;3.50;93.60;;;;;;5061493;28;20045;-69
2024/02/06 06:22:14;;;;;;;62.25;37.28;;;3.50;93.90;;;;;;5061910;28;20029;-69
2024/02/06 06:24:43;;;;;;;67.55;38.28;;;3.50;93.60;;;;;;5067997;28;20032;-71
2024/02/06 06:27:10;;;;;;;64.88;37.13;;;3.60;93.50;;;;;;5068343;28;20032;-71
2024/02/06 06:29:38;;;;;;;61.17;37.22;;;3.70;93.00;;;;;;5063006;28;20043;-69
2024/02/06 06:32:06;;;;;;;57.40;38.28;;;3.70;92.90;;;;;;5064548;28;20039;-70
2024/02/06 06:34:33;;;;;;;60.83;39.22;;;3.70;92.90;;;;;;5068130;28;20056;-70
2024/02/06 06:37:01;;;;;;;61.95;40.40;;;3.60;93.10;;;;;;5066006;28;20411;-70
2024/02/06 06:39:29;;;;;;;69.50;42.58;;;3.50;93.70;;;;;;5059690;28;20036;-70
2024/02/06 06:41:56;;;;;;;69.93;43.22;;;3.50;93.80;;;;;;5063116;28;20025;-69
2024/02/06 06:44:23;;;;;;;71.13;44.08;;;3.40;93.20;;;;;;5064023;28;20044;-71
2024/02/06 06:46:50;;;;;;;76.82;45.10;;;3.20;93.70;;;;;;5065249;28;20121;-71
2024/02/06 06:49:18;;;;;;;75.55;46.10;;;3.40;94.10;;;;;;5061590;28;20040;-70
2024/02/06 06:51:46;;;;;;;79.00;48.40;;;3.60;93.50;;;;;;5066454;28;20430;-70
2024/02/06 06:54:13;;;;;;;70.28;46.03;;;3.60;93.10;;;;;;5062565;28;20086;-70
2024/02/06 06:56:41;;;;;;;63.10;41.92;;;3.60;93.00;;;;;;5074196;28;20083;-68
2024/02/06 06:59:08;;;;;;;65.30;38.00;;;3.60;92.60;;;;;;5068273;28;20367;-71
2024/02/06 07:01:36;;;;;;;57.20;38.20;;;3.60;92.60;;;;;;5054838;28;20037;-72
2024/02/06 07:04:05;;;;;;;68.28;39.50;;;3.60;92.20;;;;;;5073756;28;20506;-71
2024/02/06 07:06:33;;;;;;;59.65;37.22;;;3.40;92.60;;;;;;5056524;28;20097;-70
2024/02/06 07:09:06;;;;;;;58.65;38.05;;;3.50;92.70;;;;;;5064100;28;20114;-71
2024/02/06 07:11:33;;;;;;;55.83;36.78;;;3.70;92.20;;;;;;5036955;28;20676;-71
2024/02/06 07:14:01;;;;;;;60.80;39.53;;;3.70;92.20;;;;;;5063948;28;20037;-71
2024/02/06 07:16:28;;;;;;;63.03;39.10;;;3.70;92.20;;;;;;5054210;28;20384;-71
2024/02/06 07:18:55;;;;;;;61.63;40.67;;;3.80;92.00;;;;;;5044206;28;20051;-72
2024/02/06 07:21:23;;;;;;;59.42;40.75;;;4.00;91.90;;;;;;5052310;28;20036;-71
2024/02/06 07:23:50;;;;;;;60.15;38.28;;;4.20;91.80;;;;;;5063295;28;20490;-71
2024/02/06 07:26:17;;;;;;;59.13;39.10;;;4.50;91.50;;;;;;5056470;28;20041;-72
2024/02/06 07:28:45;;;;;;;63.53;39.30;;;4.70;91.20;;;;;;5046780;28;20040;-71
2024/02/06 07:31:14;;;;;;;64.22;39.47;;;4.60;91.00;;;;;;5061119;28;20373;-70
2024/02/06 07:33:41;;;;;;;58.03;39.97;;;4.80;90.80;;;;;;5062221;28;20040;-71
2024/02/06 07:36:09;;;;;;;64.65;39.80;;;5.00;90.60;;;;;;5063183;28;20078;-71
2024/02/06 07:38:37;;;;;;;61.25;40.00;;;5.30;90.40;;;;;;5069880;28;20040;-69
2024/02/06 07:41:04;;;;;;;61.20;38.08;;;5.40;90.00;;;;;;5064400;28;20048;-71
2024/02/06 07:43:32;;;;;;;58.35;39.00;;;5.40;89.80;;;;;;5052445;28;20145;-72
2024/02/06 07:45:59;;;;;;;62.60;39.53;;;5.40;90.00;;;;;;5049717;28;20064;-71
2024/02/06 07:48:27;;;;;;;62.05;39.22;;;5.70;90.00;;;;;;5068908;28;20383;-70
2024/02/06 07:50:54;;;;;;;64.95;41.00;;;5.90;89.20;;;;;;5061084;28;20029;-71
2024/02/06 07:53:21;;;;;;;65.07;39.85;;;6.20;88.50;;;;;;5066065;28;20039;-71
2024/02/06 07:55:49;;;;;;;62.13;39.88;;;6.10;87.90;;;;;;5068738;28;20031;-71
2024/02/06 07:58:16;;;;;;;62.50;40.33;;;6.20;87.90;;;;;;5084050;28;20036;-72
2024/02/06 08:00:44;;;;;;;55.45;39.78;;;6.10;88.50;;;;;;5054606;28;20037;-71
2024/02/06 08:03:11;;;;;;;57.25;40.05;;;6.10;89.40;;;;;;5059235;28;20585;-71
2024/02/06 08:05:38;;;;;;;65.70;40.67;;;6.40;88.70;;;;;;5054281;28;20470;-71
2024/02/06 08:08:06;;;;;;;63.13;40.03;;;6.40;88.10;;;;;;5064951;28;20047;-72
2024/02/06 08:10:33;;;;;;;59.97;40.88;;;6.50;87.90;;;;;;5071669;28;20108;-71
2024/02/06 08:13:00;;;;;;;60.47;41.20;;;6.80;87.80;;;;;;5072913;28;20098;-71
2024/02/06 08:15:28;;;;;;;69.63;42.75;;;6.90;87.10;;;;;;5058352;28;20028;-72
2024/02/06 08:17:55;;;;;;;62.33;41.15;;;6.90;86.00;;;;;;5069200;28;20115;-70
2024/02/06 08:20:22;;;;;;;65.72;42.70;;;7.00;86.00;;;;;;5063951;28;20419;-73
2024/02/06 08:22:50;;;;;;;67.45;43.92;;;7.10;86.60;;;;;;5063840;28;20433;-71
2024/02/06 08:25:22;;;;;;;65.30;40.88;;;7.30;86.40;;;;;;5069383;28;20090;-70
2024/02/06 08:27:50;;;;;;;69.20;41.65;;;7.50;85.50;;;;;;5052460;28;20036;-72
2024/02/06 08:30:17;;;;;;;72.68;43.17;;;7.40;85.20;;;;;;5042992;28;20426;-71
2024/02/06 08:32:44;;;;;;;60.72;41.40;;;7.40;85.80;;;;;;5066275;28;20158;-70
2024/02/06 08:35:12;;;;;;;65.55;41.70;;;7.60;86.10;;;;;;5072072;28;20115;-71
2024/02/06 08:37:40;;;;;;;64.43;41.45;;;7.70;86.30;;;;;;5059103;28;20033;-71
2024/02/06 08:40:08;;;;;;;61.10;41.35;;;7.90;85.80;;;;;;5048968;28;20063;-71
2024/02/06 08:42:35;;;;;;;66.40;41.70;;;8.20;85.20;;;;;;5058149;28;20063;-70
2024/02/06 08:45:04;;;;;;;66.50;42.75;;;8.10;84.90;;;;;;5040810;28;20082;-70
2024/02/06 08:47:32;;;;;;;67.07;42.28;;;8.00;85.50;;;;;;5083208;28;20041;-71
2024/02/06 08:49:59;;;;;;;65.20;42.33;;;8.20;85.00;;;;;;5069995;28;20549;-72
2024/02/06 08:52:27;;;;;;;62.30;40.63;;;8.50;84.30;;;;;;5066964;28;20096;-71
2024/02/06 08:54:55;;;;;;;60.67;41.33;;;8.50;82.70;;;;;;5067329;28;20043;-72
2024/02/06 08:57:22;;;;;;;60.05;41.40;;;8.50;82.20;;;;;;5068342;28;20054;-71
2024/02/06 08:59:49;;;;;;;55.15;39.38;;;8.70;82.30;;;;;;5060043;28;20029;-71
2024/02/06 09:02:17;;;;;;;55.20;39.47;;;8.80;81.60;;;;;;5063125;28;20107;-71
2024/02/06 09:04:45;;;;;;;58.83;38.90;;;9.10;81.30;;;;;;5067977;28;20040;-72
2024/02/06 09:07:12;;;;;;;55.10;35.63;;;9.40;81.60;;;;;;5067189;28;20380;-73
2024/02/06 09:09:40;;;;;;;49.60;34.95;;;9.40;80.20;;;;;;5066891;28;20029;-73
2024/02/06 09:12:08;;;;;;;56.15;34.10;;;9.50;79.40;;;;;;5072182;28;20056;-72
2024/02/06 09:14:36;;;;;;;44.17;32.92;;;9.40;79.20;;;;;;5071594;28;20504;-72
2024/02/06 09:17:07;;;;;;;48.30;33.05;;;9.30;79.60;;;;;;5072250;28;20139;-72
2024/02/06 09:19:35;;;;;;;44.63;30.55;;;9.60;79.30;;;;;;5070796;28;20032;-70
2024/02/06 09:22:08;;;;;;;46.05;31.50;;;9.90;77.80;;;;;;5072928;28;20063;-74
2024/02/06 09:24:35;;;;;;;46.35;31.48;;;10.00;77.40;;;;;;5071932;28;20107;-73
2024/02/06 09:27:03;;;;;;;44.50;30.92;;;9.90;78.10;;;;;;5052470;28;20032;-73
2024/02/06 09:29:30;;;;;;;44.45;31.88;;;10.10;78.80;;;;;;5066771;28;20037;-72
2024/02/06 09:31:57;;;;;;;42.50;30.30;;;10.30;78.00;;;;;;5069001;28;20033;-70
2024/02/06 09:34:25;;;;;;;43.55;30.73;;;10.50;77.70;;;;;;5068136;28;20036;-72
2024/02/06 09:36:52;;;;;;;44.33;30.48;;;10.70;76.70;;;;;;5070699;28;20064;-71
2024/02/06 09:39:20;;;;;;;47.38;31.80;;;11.10;76.10;;;;;;5070136;28;20035;-71
2024/02/06 09:41:49;;;;;;;41.45;30.35;;;11.40;75.10;;;;;;5071127;28;20116;-71
2024/02/06 09:44:16;;;;;;;43.92;32.00;;;11.50;74.50;;;;;;5070300;28;20056;-70
2024/02/06 09:46:49;;;;;;;43.65;30.75;;;11.50;75.30;;;;;;5068679;28;20042;-73
2024/02/06 09:49:17;;;;;;;40.38;27.73;;;11.50;74.50;;;;;;5063640;28;20028;-71
2024/02/06 09:51:45;;;;;;;37.08;25.75;;;11.40;73.30;;;;;;5047376;28;20036;-71
2024/02/06 09:54:16;;;;;;;37.45;27.05;;;11.40;73.20;;;;;;5061957;28;20087;-71
2024/02/06 09:56:46;;;;;;;43.42;28.65;;;11.40;73.40;;;;;;5067056;28;20060;-71
2024/02/06 09:59:15;;;;;;;42.08;29.92;;;11.50;73.90;;;;;;5065101;28;20033;-73
2024/02/06 10:01:44;;;;;;;39.53;28.40;;;11.80;73.20;;;;;;5052138;28;20037;-70
2024/02/06 10:04:16;;;;;;;39.17;26.70;;;11.80;72.20;;;;;;5061135;28;20426;-71
2024/02/06 10:06:46;;;;;;;40.58;27.27;;;11.50;72.90;;;;;;5050733;28;20044;-71
2024/02/06 10:09:16;;;;;;;39.80;25.43;;;11.60;73.00;;;;;;5069170;28;20028;-70
2024/02/06 10:11:44;;;;;;;34.35;24.60;;;11.60;72.70;;;;;;5065997;28;20081;-69
2024/02/06 10:14:12;;;;;;;34.40;24.85;;;11.70;72.30;;;;;;5070332;28;20483;-69
2024/02/06 10:16:41;;;;;;;32.40;23.38;;;11.90;71.20;;;;;;5065125;28;20037;-69
2024/02/06 10:19:09;;;;;;;34.25;24.05;;;11.90;70.30;;;;;;5051470;28;20033;-71
2024/02/06 10:21:37;;;;;;;36.95;25.42;;;12.00;70.60;;;;;;5052381;28;20074;-70
2024/02/06 10:24:05;;;;;;;36.53;25.00;;;12.20;70.80;;;;;;5061038;28;20048;-71
2024/02/06 10:26:33;;;;;;;33.20;23.77;;;12.80;69.40;;;;;;5051582;28;20055;-70
2024/02/06 10:29:07;;;;;;;33.45;22.92;;;13.20;69.60;;;;;;5067618;28;20376;-72
2024/02/06 10:31:37;;;;;;;28.88;21.25;;;13.50;69.40;;;;;;5063295;28;20068;-69
2024/02/06 10:34:06;;;;;;;31.33;22.58;;;14.10;65.90;;;;;;5064039;28;20460;-68
2024/02/06 10:36:35;;;;;;;31.02;22.10;;;14.40;66.10;;;;;;5070931;28;20387;-70
2024/02/06 10:39:03;;;;;;;32.78;21.50;;;14.70;66.10;;;;;;5052599;28;20490;-69
2024/02/06 10:41:31;;;;;;;31.08;21.08;;;14.90;64.40;;;;;;5070780;28;20036;-73
2024/02/06 10:44:22;;;;;;;30.17;19.88;;;14.40;64.10;;;;;;5070810;28;20040;-70
2024/02/06 10:47:01;;;;;;;28.02;19.35;;;14.40;63.70;;;;;;5078015;28;20036;-71
2024/02/06 10:49:30;;;;;;;26.85;20.05;;;14.70;63.30;;;;;;5071160;28;20036;-70
2024/02/06 10:52:06;;;;;;;24.92;18.48;;;15.00;62.50;;;;;;5070519;28;20107;-69
2024/02/06 10:54:35;;;;;;;27.52;20.40;;;15.50;63.10;;;;;;5053033;28;20056;-70
2024/02/06 10:57:07;;;;;;;29.52;21.75;;;15.80;61.90;;;;;;5055951;28;20111;-69
2024/02/06 10:59:48;;;;;;;30.27;21.27;;;16.10;61.00;;;;;;5068813;28;20055;-69
2024/02/06 11:02:34;;;;;;;27.83;19.70;;;16.80;61.30;;;;;;5060235;28;20467;-69
2024/02/06 11:05:37;;;;;;;28.20;19.20;;;17.00;59.50;;;;;;5052372;28;20064;-70
2024/02/06 11:08:13;;;;;;;25.60;18.23;;;17.30;57.20;;;;;;5052334;28;20043;-70
2024/02/06 11:10:44;;;;;;;25.33;16.83;;;17.00;57.40;;;;;;5051036;28;20422;-71
2024/02/06 11:13:35;;;;;;;26.30;16.83;;;15.90;58.20;;;;;;5068040;28;20098;-69
2024/02/06 11:16:03;;;;;;;;;;;20.80;55.10;;;;;;5045724;28;20040;-69
2024/02/06 11:18:52;;;;;;;25.58;18.67;;;26.80;47.40;;;;;;5057870;28;20358;-69
2024/02/06 11:21:23;;;;;;;31.42;20.48;;;28.90;44.30;;;;;;5064034;28;20428;-71
2024/02/06 11:23:57;;;;;;;25.42;19.92;;;29.10;42.10;;;;;;5071985;28;20047;-70
2024/02/06 11:26:24;;;;;;;25.42;18.77;;;29.40;41.20;;;;;;5054337;28;20040;-69
2024/02/06 11:28:52;;;;;;;22.83;18.27;;;30.10;41.20;;;;;;5050770;28;20403;-70
2024/02/06 11:31:20;;;;;;;23.17;18.88;;;30.20;40.30;;;;;;5046313;28;20036;-70
2024/02/06 11:34:13;;;;;;;20.55;17.40;;;30.20;40.60;;;;;;5054308;28;20036;-70
2024/02/06 11:36:42;;;;;;;27.38;17.92;;;30.80;39.40;;;;;;5043468;28;20040;-70
2024/02/06 11:39:12;;;;;;;22.60;17.10;;;30.70;39.20;;;;;;5067227;28;20051;-68
2024/02/06 11:41:42;;;;;;;20.30;16.05;;;27.10;40.30;;;;;;5048304;28;20040;-72
2024/02/06 11:44:12;;;;;;;19.75;15.65;;;23.80;44.30;;;;;;5068976;28;20112;-70
2024/02/06 11:46:46;;;;;;;22.80;16.13;;;21.80;46.70;;;;;;5069371;28;20098;-70
2024/02/06 11:49:20;;;;;;;21.23;15.75;;;20.50;48.80;;;;;;5058442;28;20096;-69
2024/02/06 11:51:57;;;;;;;19.98;15.68;;;20.70;49.10;;;;;;5060793;28;20042;-71
2024/02/06 11:54:42;;;;;;;17.35;14.55;;;21.00;48.60;;;;;;5072962;28;20367;-71
2024/02/06 11:57:10;;;;;;;21.15;15.05;;;21.10;47.80;;;;;;5073261;28;20430;-71
2024/02/06 11:59:38;;;;;;;20.05;14.43;;;20.40;47.50;;;;;;5063747;28;20074;-71
2024/02/06 12:02:12;;;;;;;21.27;14.93;;;20.10;49.30;;;;;;5052336;28;20107;-69
2024/02/06 12:04:40;;;;;;;23.33;15.15;;;19.60;48.20;;;;;;5073857;28;20060;-69
2024/02/06 12:07:07;;;;;;;22.20;14.43;;;19.50;49.80;;;;;;5072901;28;20044;-72
2024/02/06 12:09:40;;;;;;;26.50;14.88;;;19.80;49.30;;;;;;5054962;28;20106;-70
2024/02/06 12:12:08;;;;;;;14.68;11.77;;;20.20;48.70;;;;;;5068554;28;20033;-70
2024/02/06 12:14:36;;;;;;;16.58;12.32;;;20.30;47.60;;;;;;5069993;28;20124;-70
2024/02/06 12:17:05;;;;;;;15.45;10.95;;;20.50;47.40;;;;;;5068116;28;20089;-70
2024/02/06 12:19:33;;;;;;;16.25;11.73;;;20.90;46.80;;;;;;5063985;28;20072;-70
2024/02/06 12:22:03;;;;;;;22.35;13.13;;;21.50;46.00;;;;;;5054745;28;20041;-68
2024/02/06 12:24:31;;;;;;;17.60;12.73;;;21.60;46.10;;;;;;5069956;28;20479;-70
2024/02/06 12:27:04;;;;;;;18.88;12.70;;;21.60;45.80;;;;;;5068584;28;20024;-72
2024/02/06 12:29:41;;;;;;;19.65;12.85;;;21.50;45.90;;;;;;5067938;28;20049;-70
2024/02/06 12:32:09;;;;;;;16.45;11.80;;;21.70;46.20;;;;;;5068840;28;20155;-72
2024/02/06 12:34:37;;;;;;;20.92;10.82;;;21.40;44.70;;;;;;5070025;28;20116;-71
2024/02/06 12:37:04;;;;;;;16.13;10.32;;;21.50;45.80;;;;;;5067189;28;20072;-70
2024/02/06 12:39:32;;;;;;;14.73;10.98;;;21.90;45.30;;;;;;5061430;28;20480;-69